Data for 04/05/2010

Time Sea-Level Adjusted Pressure Absolute Pressure Temperature Relative Humidity Dew Point   
(mb) (inHg) (mb) (inHg) (C) (F) (%) (C) (F)
00:05 1009 29.8 839 24.78 -1.1 30 49 -10.5 13.1
00:10 1009 29.8 838 24.75 -1.2 29.8 49 -10.7 12.8
00:15 1009 29.8 838 24.75 -1.1 29.9 49 -10.6 13
00:20 1009 29.8 838 24.75 -1.1 30 49 -10.4 13.3
00:25 1009 29.8 838 24.75 -1.2 29.9 48 -10.7 12.7
00:30 1009 29.8 838 24.75 -1.1 29.9 51 -10 14
00:35 1009 29.8 838 24.75 -1.5 29.4 52 -10.1 13.8
00:40 1009 29.8 838 24.75 -1.3 29.6 47 -11.2 11.8
00:45 1009 29.8 838 24.75 -0.8 30.5 49 -10.3 13.4
00:50 1009 29.8 838 24.75 -1.2 29.9 48 -10.8 12.5
00:55 1009 29.8 838 24.75 -1 30.2 47 -10.9 12.3
01:00 1009 29.8 838 24.75 -0.9 30.4 47 -10.8 12.5
01:05 1009 29.8 838 24.75 -0.9 30.4 47 -10.9 12.4
01:10 1009 29.8 838 24.75 -1 30.3 48 -10.5 13.1
01:15 1009 29.8 838 24.75 -1.1 30 49 -10.6 12.9
01:20 1009 29.8 838 24.75 -1.2 29.9 49 -10.6 13
01:25 1009 29.8 838 24.75 -1 30.2 47 -11 12.2
01:30 1009 29.8 838 24.75 -0.8 30.5 46 -11 12.3
01:35 1008 29.77 838 24.75 -0.9 30.3 46 -11.1 12.1
01:40 1008 29.77 838 24.75 -0.8 30.6 45 -11.3 11.7
01:45 1008 29.77 837 24.72 -0.7 30.8 45 -11.2 11.9
01:50 1008 29.77 837 24.72 -0.6 30.9 45 -11.1 12
01:55 1008 29.77 837 24.72 -0.5 31.1 45 -11 12.2
02:00 1008 29.77 837 24.72 -0.6 30.9 45 -11 12.2
02:05 1008 29.77 837 24.72 -0.6 30.9 45 -11.1 12
02:10 1008 29.77 837 24.72 -0.6 30.9 46 -10.9 12.4
02:15 1008 29.77 837 24.72 -0.7 30.7 46 -10.9 12.3
02:20 1008 29.77 837 24.72 -0.8 30.6 46 -11.1 12
02:25 1008 29.77 837 24.72 -0.8 30.5 46 -11.1 12
02:30 1008 29.77 837 24.72 -1 30.2 47 -10.9 12.3
02:35 1008 29.77 837 24.72 -1.1 30 47 -11 12.3
02:40 1008 29.77 837 24.72 -1.2 29.9 47 -11.2 11.9
02:45 1008 29.77 837 24.72 -1.1 30 47 -11.1 12
02:50 1008 29.77 837 24.72 -1 30.2 46 -11.2 11.9
02:55 1008 29.77 837 24.72 -0.9 30.3 46 -11.2 11.9
03:00 1008 29.77 837 24.72 -0.9 30.3 48 -10.7 12.8
03:05 1008 29.77 837 24.72 -1.3 29.6 50 -10.4 13.2
03:10 1008 29.77 837 24.72 -1.6 29.1 50 -10.7 12.8
03:15 1008 29.77 837 24.72 -1.7 29 50 -10.8 12.5
03:20 1008 29.77 837 24.72 -1.6 29.1 49 -10.9 12.4
03:25 1008 29.77 837 24.72 -1.7 28.9 50 -10.8 12.5
03:30 1008 29.77 837 24.72 -1.7 28.9 50 -10.8 12.5
03:35 1007 29.74 837 24.72 -1.6 29.1 49 -11 12.2
03:40 1007 29.74 837 24.72 -1.6 29 50 -10.8 12.6
03:45 1007 29.74 837 24.72 -1.8 28.8 51 -10.8 12.6
03:50 1007 29.74 837 24.72 -1.8 28.8 50 -10.9 12.3
03:55 1007 29.74 836 24.69 -1.7 29 49 -10.9 12.3
04:00 1007 29.74 836 24.69 -1.7 29 49 -11.1 12.1
04:05 1007 29.74 836 24.69 -1.6 29.1 49 -11 12.2
04:10 1007 29.74 836 24.69 -1.8 28.8 50 -10.9 12.3
04:15 1007 29.74 836 24.69 -1.9 28.6 50 -10.9 12.4
04:20 1007 29.74 836 24.69 -1.9 28.6 50 -11 12.3
04:25 1007 29.74 836 24.69 -1.9 28.6 50 -10.9 12.4
04:30 1007 29.74 836 24.69 -1.9 28.7 50 -11.1 12.1
04:35 1007 29.74 836 24.69 -1.8 28.8 50 -11 12.2
04:40 1007 29.74 836 24.69 -1.8 28.8 50 -10.9 12.3
04:45 1007 29.74 836 24.69 -1.7 28.9 49 -11.1 12
04:50 1007 29.74 836 24.69 -1.6 29 49 -11.1 12
04:55 1007 29.74 836 24.69 -1.7 29 49 -11.1 12.1
05:00 1007 29.74 836 24.69 -1.7 29 49 -11.1 12
05:05 1007 29.74 836 24.69 -1.7 29 48 -11.2 11.8
05:10 1007 29.74 836 24.69 -1.6 29.1 48 -11.2 11.8
05:15 1007 29.74 836 24.69 -1.6 29.1 48 -11.3 11.7
05:20 1007 29.74 836 24.69 -1.6 29.2 49 -11 12.1
05:25 1007 29.74 836 24.69 -2 28.5 52 -10.5 13
05:30 1007 29.74 836 24.69 -2.3 27.9 52 -10.9 12.4
05:35 1007 29.74 836 24.69 -2.1 28.2 51 -11 12.3
05:40 1007 29.74 836 24.69 -2 28.3 51 -10.9 12.3
05:45 1007 29.74 836 24.69 -2.3 27.9 53 -10.6 13
05:50 1007 29.74 836 24.69 -2.3 27.9 52 -10.9 12.3
05:55 1007 29.74 836 24.69 -2.2 28.1 52 -10.6 12.8
06:00 1007 29.74 836 24.69 -2.3 27.9 53 -10.6 12.9
06:05 1007 29.74 836 24.69 -2.2 28 52 -10.7 12.8
06:10 1006 29.71 836 24.69 -2 28.4 52 -10.6 12.9
06:15 1006 29.71 836 24.69 -2 28.4 52 -10.5 13.1
06:20 1006 29.71 836 24.69 -2.1 28.2 53 -10.5 13
06:25 1006 29.71 836 24.69 -2.2 28.1 52 -10.7 12.8
06:30 1006 29.71 836 24.69 -2.2 28 53 -10.6 13
06:35 1006 29.71 836 24.69 -2 28.3 52 -10.6 13
06:40 1006 29.71 836 24.69 -1.9 28.5 52 -10.6 12.9
06:45 1006 29.71 836 24.69 -1.8 28.8 51 -10.8 12.6
06:50 1006 29.71 836 24.69 -1.7 29 50 -10.8 12.6
06:55 1006 29.71 835 24.66 -1.5 29.3 49 -10.9 12.4
07:00 1006 29.71 835 24.66 -1.5 29.4 49 -10.7 12.7
07:05 1006 29.71 835 24.66 -1.5 29.2 49 -10.8 12.6
07:10 1006 29.71 835 24.66 -1.5 29.4 49 -10.9 12.3
07:15 1006 29.71 835 24.66 -1.4 29.5 49 -10.9 12.4
07:20 1006 29.71 835 24.66 -1.4 29.5 49 -10.9 12.4
07:25 1006 29.71 835 24.66 -1.4 29.4 49 -10.9 12.4
07:30 1006 29.71 835 24.66 -1.2 29.8 47 -11.1 12
07:35 1006 29.71 835 24.66 -1.1 30.1 48 -10.9 12.5
07:40 1006 29.71 835 24.66 -1 30.2 47 -10.9 12.3
07:45 1006 29.71 835 24.66 -0.8 30.5 47 -10.7 12.7
07:50 1006 29.71 835 24.66 -0.8 30.6 48 -10.6 12.9
07:55 1006 29.71 835 24.66 -0.8 30.6 48 -10.6 12.9
08:00 1006 29.71 835 24.66 -0.6 30.9 46 -10.8 12.5
08:05 1006 29.71 835 24.66 -0.5 31.1 46 -10.7 12.7
08:10 1006 29.71 835 24.66 -0.5 31.2 46 -10.8 12.6
08:15 1006 29.71 835 24.66 -0.4 31.3 46 -10.6 12.9
08:20 1006 29.71 835 24.66 -0.5 31.1 47 -10.4 13.3
08:25 1006 29.71 835 24.66 -0.4 31.3 47 -10.4 13.2
08:30 1006 29.71 835 24.66 -0.2 31.7 45 -10.6 12.9
08:35 1006 29.71 835 24.66 -0 31.9 45 -10.5 13.2
08:40 1006 29.71 835 24.66 0.1 32.1 46 -10.3 13.5
08:45 1006 29.71 835 24.66 0.3 32.5 45 -10.5 13.2
08:50 1006 29.71 835 24.66 0.6 33 42 -11 12.2
08:55 1006 29.71 835 24.66 0.9 33.6 41 -11.1 12.1
09:00 1006 29.71 835 24.66 1 33.7 41 -10.9 12.3
09:05 1006 29.71 835 24.66 1.1 34 40 -11.2 11.9
09:10 1006 29.71 835 24.66 1.3 34.3 40 -10.9 12.3
09:15 1006 29.71 835 24.66 1.2 34.2 41 -10.8 12.6
09:20 1006 29.71 835 24.66 1.2 34.1 40 -10.9 12.5
09:25 1006 29.71 835 24.66 1.2 34.2 39 -11.2 11.9
09:30 1006 29.71 835 24.66 1.2 34.2 40 -10.9 12.4
09:35 1006 29.71 835 24.66 1.4 34.5 40 -10.9 12.4
09:40 1006 29.71 835 24.66 1.5 34.7 39 -10.9 12.5
09:45 1006 29.71 835 24.66 1.4 34.5 40 -10.8 12.6
09:50 1006 29.71 835 24.66 1.3 34.3 40 -10.9 12.4
09:55 1006 29.71 835 24.66 1.1 34 41 -10.9 12.5
10:00 1006 29.71 835 24.66 1.1 34 41 -10.8 12.6
10:05 1006 29.71 835 24.66 1.2 34.2 41 -10.5 13.1
10:10 1006 29.71 835 24.66 1.3 34.3 42 -10.2 13.7
10:15 1006 29.71 835 24.66 1.2 34.2 44 -9.7 14.5
10:20 1006 29.71 835 24.66 0.9 33.7 46 -9.5 14.9
10:25 1006 29.71 835 24.66 0.7 33.3 46 -9.6 14.7
10:30 1006 29.71 835 24.66 0.7 33.2 47 -9.3 15.2
10:35 1006 29.71 835 24.66 -0 31.9 48 -9.7 14.6
10:40 1006 29.71 835 24.66 0.1 32.1 48 -9.7 14.5
10:45 1006 29.71 835 24.66 0.3 32.5 49 -9.2 15.4
10:50 1006 29.71 835 24.66 0.5 32.9 70 -4.4 24.1
10:55 1006 29.71 835 24.66 0.1 32.1 80 -3 26.6
11:00 1006 29.71 835 24.66 -0.4 31.4 83 -2.8 26.9
11:05 1006 29.71 835 24.66 -0.3 31.5 82 -3 26.6
11:10 1006 29.71 835 24.66 -0.4 31.2 79 -3.6 25.4
11:15 1006 29.71 835 24.66 -0.4 31.4 83 -2.9 26.7
11:20 1006 29.71 835 24.66 -0.5 31.1 88 -2.3 27.9
11:25 1006 29.71 835 24.66 -0.8 30.5 90 -2.2 28
11:30 1006 29.71 835 24.66 -1.1 30.1 92 -2.2 28
11:35 1006 29.71 835 24.66 -1 30.2 92 -2.1 28.2
11:40 1006 29.71 835 24.66 -0.6 31 90 -1.9 28.5
11:45 1006 29.71 835 24.66 -0.1 31.9 86 -2.2 28
11:50 1005 29.68 835 24.66 0.3 32.5 83 -2.3 27.9
11:55 1005 29.68 835 24.66 0.4 32.7 84 -2 28.4
12:00 1005 29.68 835 24.66 0.5 32.8 83 -2 28.4
12:05 1005 29.68 835 24.66 0.5 32.8 84 -1.9 28.6
12:10 1005 29.68 835 24.66 0.6 33.1 80 -2.4 27.7
12:15 1005 29.68 835 24.66 0.7 33.3 80 -2.3 27.9
12:20 1006 29.71 835 24.66 0.9 33.7 79 -2.4 27.7
12:25 1006 29.71 835 24.66 1 33.9 79 -2.3 27.9
12:30 1006 29.71 835 24.66 1.2 34.2 77 -2.3 27.8
12:35 1006 29.71 835 24.66 1.2 34.2 78 -2.2 28
12:40 1006 29.71 835 24.66 1.2 34.2 78 -2.2 28.1
12:45 1006 29.71 835 24.66 1.2 34.1 78 -2.2 28
12:50 1006 29.71 835 24.66 1 33.9 80 -2.1 28.3
12:55 1006 29.71 835 24.66 0.7 33.2 83 -1.9 28.7
13:00 1006 29.71 835 24.66 0.5 32.9 82 -2.2 28.1
13:05 1006 29.71 835 24.66 0.3 32.5 85 -1.9 28.6
13:10 1006 29.71 835 24.66 0.2 32.3 88 -1.6 29.1
13:15 1006 29.71 835 24.66 0.3 32.5 90 -1.2 29.9
13:20 1006 29.71 835 24.66 0.4 32.8 91 -0.9 30.4
13:25 1006 29.71 835 24.66 0.7 33.2 92 -0.4 31.2
13:30 1006 29.71 835 24.66 1.1 34 88 -0.6 30.9
13:35 1006 29.71 835 24.66 0.3 32.6 90 -1.1 30
13:40 1006 29.71 835 24.66 0.1 32.2 92 -1.1 30
13:45 1006 29.71 835 24.66 0.2 32.3 93 -0.9 30.4
13:50 1006 29.71 835 24.66 0.6 33.1 90 -0.9 30.4
13:55 1006 29.71 835 24.66 1.3 34.4 86 -0.8 30.6
14:00 1006 29.71 835 24.66 1.5 34.7 88 -0.3 31.5
14:05 1006 29.71 835 24.66 1.7 35 86 -0.5 31.1
14:10 1006 29.71 835 24.66 1.7 35.1 88 -0 31.9
14:15 1006 29.71 835 24.66 2.1 35.7 85 -0.2 31.6
14:20 1006 29.71 835 24.66 2.3 36.2 84 -0 31.9
14:25 1006 29.71 835 24.66 2.7 36.8 82 -0.1 31.8
14:30 1006 29.71 835 24.66 2.6 36.8 80 -0.4 31.2
14:35 1006 29.71 835 24.66 3.4 38.1 78 -0.2 31.7
14:40 1006 29.71 835 24.66 3.6 38.5 75 -0.4 31.3
14:45 1006 29.71 835 24.66 3.9 38.9 76 -0 31.9
14:50 1006 29.71 835 24.66 3.6 38.6 77 -0 32
14:55 1006 29.71 835 24.66 3.1 37.5 77 -0.5 31.1
15:00 1006 29.71 835 24.66 4.2 39.6 71 -0.6 30.9
15:05 1006 29.71 835 24.66 4.1 39.4 74 -0.1 31.8
15:10 1006 29.71 835 24.66 3.6 38.6 73 -0.7 30.8
15:15 1006 29.71 835 24.66 4.3 39.8 69 -0.9 30.3
15:20 1006 29.71 835 24.66 4.7 40.5 69 -0.5 31.2
15:25 1006 29.71 835 24.66 5 41.1 69 -0.3 31.5
15:30 1006 29.71 835 24.66 5.1 41.2 65 -0.9 30.4
15:35 1006 29.71 835 24.66 4.9 40.9 68 -0.5 31.2
15:40 1006 29.71 835 24.66 4.3 39.8 69 -0.9 30.4
15:45 1006 29.71 835 24.66 4 39.2 69 -1.1 30
15:50 1006 29.71 835 24.66 4.3 39.8 66 -1.4 29.5
15:55 1006 29.71 835 24.66 5.5 42 64 -0.7 30.7
16:00 1006 29.71 835 24.66 6.2 43.2 60 -0.9 30.5
16:05 1006 29.71 835 24.66 6.4 43.5 61 -0.5 31.1
16:10 1006 29.71 835 24.66 5.5 41.9 62 -1.2 29.8
16:15 1006 29.71 835 24.66 5.4 41.8 65 -0.7 30.7
16:20 1006 29.71 835 24.66 5.4 41.6 67 -0.3 31.4
16:25 1006 29.71 835 24.66 4.5 40.1 67 -1.1 30
16:30 1006 29.71 835 24.66 4.4 39.9 69 -0.8 30.6
16:35 1006 29.71 835 24.66 4.1 39.4 69 -1.1 30.1
16:40 1006 29.71 835 24.66 4.4 39.9 68 -1 30.3
16:45 1006 29.71 835 24.66 4.5 40.2 66 -1.3 29.7
16:50 1006 29.71 835 24.66 4.2 39.6 67 -1.4 29.5
16:55 1006 29.71 835 24.66 4.6 40.2 66 -1.2 29.8
17:00 1006 29.71 835 24.66 5.4 41.6 63 -1.2 29.9
17:05 1006 29.71 835 24.66 5.4 41.7 62 -1.3 29.6
17:10 1006 29.71 835 24.66 5.8 42.4 63 -0.8 30.6
17:15 1006 29.71 835 24.66 5.3 41.6 63 -1.1 30
17:20 1006 29.71 835 24.66 6 42.8 58 -1.5 29.2
17:25 1006 29.71 835 24.66 6.4 43.5 56 -1.6 29.1
17:30 1006 29.71 835 24.66 6.4 43.5 56 -1.8 28.7
17:35 1006 29.71 835 24.66 6.6 43.9 56 -1.5 29.4
17:40 1006 29.71 835 24.66 6.2 43.1 58 -1.3 29.6
17:45 1006 29.71 835 24.66 5.4 41.6 61 -1.5 29.2
17:50 1006 29.71 835 24.66 5.3 41.5 60 -1.8 28.8
17:55 1006 29.71 835 24.66 5.8 42.5 56 -2.2 28.1
18:00 1006 29.71 835 24.66 5.8 42.5 59 -1.6 29.2
18:05 1006 29.71 835 24.66 6 42.8 57 -1.9 28.6
18:10 1006 29.71 835 24.66 6.1 42.9 57 -1.7 29
18:15 1006 29.71 835 24.66 6.1 43 58 -1.5 29.3
18:20 1006 29.71 835 24.66 5.4 41.7 63 -1.1 30
18:25 1006 29.71 835 24.66 5.3 41.5 61 -1.6 29.1
18:30 1006 29.71 835 24.66 5.6 42.1 62 -1.1 29.9
18:35 1006 29.71 835 24.66 5.5 42 60 -1.6 29.1
18:40 1006 29.71 835 24.66 5.4 41.6 60 -1.7 28.9
18:45 1006 29.71 835 24.66 5 41 61 -1.9 28.6
18:50 1006 29.71 835 24.66 4.7 40.5 63 -1.7 29
18:55 1006 29.71 835 24.66 4.7 40.5 63 -1.8 28.8
19:00 1006 29.71 835 24.66 5.1 41.1 62 -1.6 29
19:05 1006 29.71 835 24.66 4.8 40.7 64 -1.5 29.4
19:10 1006 29.71 835 24.66 4.5 40 65 -1.6 29.1
19:15 1006 29.71 835 24.66 4.3 39.7 65 -1.7 29
19:20 1006 29.71 835 24.66 4.2 39.5 67 -1.5 29.3
19:25 1006 29.71 835 24.66 4.1 39.4 67 -1.4 29.6
19:30 1006 29.71 835 24.66 4 39.2 68 -1.4 29.5
19:35 1006 29.71 835 24.66 3.9 39 68 -1.5 29.4
19:40 1006 29.71 835 24.66 3.7 38.7 68 -1.6 29.2
19:45 1006 29.71 835 24.66 3.6 38.5 68 -1.6 29.1
19:50 1006 29.71 835 24.66 3.6 38.5 68 -1.7 28.9
19:55 1006 29.71 835 24.66 3.6 38.4 68 -1.7 28.9
20:00 1006 29.71 835 24.66 3.5 38.3 68 -1.7 28.9
20:05 1006 29.71 835 24.66 3.5 38.2 69 -1.7 29
20:10 1006 29.71 835 24.66 3.3 38 71 -1.5 29.4
20:15 1006 29.71 835 24.66 3.3 37.9 71 -1.5 29.3
20:20 1006 29.71 835 24.66 3.3 38 71 -1.4 29.4
20:25 1006 29.71 835 24.66 3.1 37.6 73 -1.3 29.6
20:30 1006 29.71 835 24.66 2.8 37 74 -1.5 29.3
20:35 1006 29.71 835 24.66 2.7 36.8 74 -1.5 29.3
20:40 1006 29.71 835 24.66 2.6 36.7 74 -1.6 29.1
20:45 1006 29.71 835 24.66 2.5 36.6 74 -1.6 29.2
20:50 1006 29.71 836 24.69 2.2 36 75 -1.7 29
20:55 1006 29.71 836 24.69 1.9 35.4 77 -1.7 28.9
21:00 1006 29.71 836 24.69 1.6 34.8 77 -2.1 28.2
21:05 1006 29.71 836 24.69 1.6 34.9 77 -2 28.3
21:10 1006 29.71 836 24.69 1.3 34.4 78 -2.1 28.2
21:15 1006 29.71 836 24.69 1.2 34.1 79 -2.1 28.2
21:20 1006 29.71 836 24.69 1 33.8 80 -2 28.4
21:25 1006 29.71 836 24.69 0.8 33.4 81 -2.1 28.2
21:30 1006 29.71 836 24.69 1 33.8 80 -2.2 28.1
21:35 1007 29.74 836 24.69 1 33.8 80 -2.1 28.2
21:40 1007 29.74 836 24.69 0.9 33.7 80 -2.2 28.1
21:45 1007 29.74 836 24.69 0.9 33.7 80 -2.1 28.2
21:50 1007 29.74 836 24.69 0.9 33.7 80 -2.2 28.1
21:55 1007 29.74 836 24.69 0.8 33.5 80 -2.2 28
22:00 1007 29.74 836 24.69 0.8 33.4 80 -2.2 28
22:05 1007 29.74 836 24.69 0.7 33.3 81 -2.2 28
22:10 1007 29.74 836 24.69 0.7 33.3 81 -2.2 28
22:15 1007 29.74 836 24.69 0.7 33.3 80 -2.4 27.7
22:20 1007 29.74 836 24.69 0.7 33.2 80 -2.4 27.7
22:25 1007 29.74 836 24.69 0.6 33.1 80 -2.5 27.6
22:30 1007 29.74 836 24.69 0.7 33.3 80 -2.3 27.8
22:35 1007 29.74 836 24.69 0.7 33.2 80 -2.4 27.7
22:40 1007 29.74 836 24.69 0.5 32.9 81 -2.4 27.6
22:45 1007 29.74 836 24.69 0.3 32.6 81 -2.5 27.5
22:50 1007 29.74 836 24.69 0.2 32.4 82 -2.6 27.4
22:55 1007 29.74 836 24.69 0.3 32.6 79 -2.8 26.9
23:00 1007 29.74 836 24.69 0.6 33.1 78 -2.8 26.9
23:05 1007 29.74 836 24.69 0.7 33.2 79 -2.6 27.3
23:10 1007 29.74 836 24.69 0.6 33.2 79 -2.6 27.4
23:15 1007 29.74 836 24.69 0.6 33.1 78 -2.8 27
23:20 1007 29.74 836 24.69 0.7 33.3 77 -2.8 27
23:25 1007 29.74 836 24.69 0.7 33.3 79 -2.6 27.3
23:30 1007 29.74 836 24.69 0.6 33.1 79 -2.7 27.2
23:35 1007 29.74 836 24.69 0.6 33.1 78 -2.7 27.1
23:40 1007 29.74 836 24.69 0.6 33.1 79 -2.6 27.3
23:45 1007 29.74 836 24.69 0.6 33.2 78 -2.8 27
23:50 1007 29.74 836 24.69 0.7 33.2 78 -2.8 27
23:55 1007 29.74 836 24.69 0.7 33.2 78 -2.8 27
24:00 1007 29.74 836 24.69 0.7 33.2 77 -2.9 26.9